Time;durP1;ratioP1;P1;durP2;ratioP2;P2;SDS_P1;SDS_P2;PMS_P1;PMS_P2;Temp;Humidity;BMP_temperature;BMP_pressure;BME280_temperature;BME280_humidity;BME280_pressure;Samples;Min_cycle;Max_cycle;Signal;HPM_P1;HPM_P2
2023/03/18 00:02:02;;;;;;;0.20;0.20;;;;;;;;;;4838471;29;20045;-74
2023/03/18 00:04:28;;;;;;;0.20;0.20;;;;;;;;;;4856819;29;20057;-74
2023/03/18 00:06:54;;;;;;;0.20;0.20;;;;;;;;;;4843163;29;20037;-74
2023/03/18 00:09:21;;;;;;;0.10;0.10;;;;;;;;;;4828975;29;20053;-75
2023/03/18 00:11:47;;;;;;;0.10;0.10;;;;;;;;;;4838779;29;20057;-75
2023/03/18 00:14:14;;;;;;;0.10;0.10;;;;;;;;;;4856358;29;20053;-75
2023/03/18 00:16:40;;;;;;;0.10;0.10;;;;;;;;;;4856583;29;20133;-75
2023/03/18 00:19:06;;;;;;;0.10;0.10;;;;;;;;;;4855421;29;20049;-75
2023/03/18 00:21:33;;;;;;;0.10;0.10;;;;;;;;;;4852319;29;20589;-74
2023/03/18 00:23:59;;;;;;;0.20;0.20;;;;;;;;;;4838633;29;20049;-74
2023/03/18 00:26:26;;;;;;;0.15;0.15;;;;;;;;;;4836633;29;20061;-74
2023/03/18 00:28:56;;;;;;;0.10;0.10;;;;;;;;;;4826536;29;20148;-74
2023/03/18 00:31:23;;;;;;;0.20;0.20;;;;;;;;;;4857108;29;20081;-74
2023/03/18 00:33:50;;;;;;;0.10;0.10;;;;;;;;;;4840817;29;20049;-74
2023/03/18 00:36:17;;;;;;;0.10;0.10;;;;;;;;;;4839555;29;20562;-74
2023/03/18 00:38:49;;;;;;;0.30;0.30;;;;;;;;;;4852702;29;20502;-74
2023/03/18 00:41:15;;;;;;;0.10;0.10;;;;;;;;;;4840045;29;20079;-74
2023/03/18 00:43:51;;;;;;;0.10;0.10;;;;;;;;;;4838127;29;20094;-74
2023/03/18 00:46:18;;;;;;;0.20;0.20;;;;;;;;;;4856116;29;20514;-74
2023/03/18 00:48:44;;;;;;;0.10;0.10;;;;;;;;;;4836585;29;20100;-73
2023/03/18 00:51:12;;;;;;;0.10;0.10;;;;;;;;;;4853032;29;20056;-74
2023/03/18 00:53:40;;;;;;;0.20;0.20;;;;;;;;;;4855879;29;20049;-74
2023/03/18 00:56:07;;;;;;;0.10;0.10;;;;;;;;;;4838840;29;20133;-74
2023/03/18 00:58:33;;;;;;;0.17;0.17;;;;;;;;;;4838903;29;20502;-74
2023/03/18 01:01:00;;;;;;;0.10;0.10;;;;;;;;;;4851946;29;20133;-75
2023/03/18 01:03:26;;;;;;;0.10;0.10;;;;;;;;;;4837459;29;20561;-74
2023/03/18 01:05:52;;;;;;;0.10;0.10;;;;;;;;;;4828940;29;20050;-74
2023/03/18 01:08:20;;;;;;;0.10;0.10;;;;;;;;;;4836048;29;20088;-73
2023/03/18 01:10:47;;;;;;;0.20;0.20;;;;;;;;;;4841898;29;20451;-74
2023/03/18 01:13:16;;;;;;;0.15;0.15;;;;;;;;;;4856994;29;20056;-74
2023/03/18 01:15:42;;;;;;;0.10;0.10;;;;;;;;;;4838406;29;20493;-74
2023/03/18 01:18:10;;;;;;;0.10;0.10;;;;;;;;;;4853001;29;20120;-74
2023/03/18 01:20:36;;;;;;;0.20;0.20;;;;;;;;;;4864094;29;20052;-75
2023/03/18 01:23:03;;;;;;;0.10;0.10;;;;;;;;;;4858936;29;20406;-75
2023/03/18 01:25:29;;;;;;;0.10;0.10;;;;;;;;;;4858403;29;20156;-75
2023/03/18 01:27:55;;;;;;;0.20;0.20;;;;;;;;;;4850874;29;20071;-75
2023/03/18 01:30:22;;;;;;;0.10;0.10;;;;;;;;;;4852036;29;20088;-75
2023/03/18 01:32:48;;;;;;;0.10;0.10;;;;;;;;;;4835216;29;20054;-75
2023/03/18 01:35:24;;;;;;;0.10;0.10;;;;;;;;;;4829430;29;20057;-74
2023/03/18 01:37:52;;;;;;;0.20;0.20;;;;;;;;;;4852033;29;20053;-75
2023/03/18 01:40:19;;;;;;;0.15;0.15;;;;;;;;;;4834451;29;20569;-75
2023/03/18 01:42:48;;;;;;;0.20;0.20;;;;;;;;;;4851396;29;20045;-75
2023/03/18 01:45:18;;;;;;;0.17;0.17;;;;;;;;;;4832508;29;20081;-75
2023/03/18 01:47:45;;;;;;;0.10;0.10;;;;;;;;;;4851712;29;20053;-75
2023/03/18 01:50:13;;;;;;;0.10;0.10;;;;;;;;;;4848384;29;20065;-75
2023/03/18 01:52:39;;;;;;;0.10;0.10;;;;;;;;;;4853883;29;20510;-75
2023/03/18 01:55:06;;;;;;;0.10;0.10;;;;;;;;;;4842890;29;20101;-75
2023/03/18 01:57:33;;;;;;;0.20;0.20;;;;;;;;;;4832293;29;20049;-75
2023/03/18 02:00:00;;;;;;;0.20;0.20;;;;;;;;;;4843002;29;20053;-75
2023/03/18 02:02:27;;;;;;;0.10;0.10;;;;;;;;;;4856284;29;20101;-74
2023/03/18 02:04:57;;;;;;;0.10;0.10;;;;;;;;;;4857845;29;20439;-75
2023/03/18 02:07:28;;;;;;;0.10;0.10;;;;;;;;;;4849395;29;20516;-75
2023/03/18 02:09:56;;;;;;;0.10;0.10;;;;;;;;;;4842775;29;20053;-75
2023/03/18 02:12:24;;;;;;;0.10;0.10;;;;;;;;;;4838569;29;20078;-75
2023/03/18 02:14:52;;;;;;;0.10;0.10;;;;;;;;;;4842106;29;20060;-75
2023/03/18 02:17:23;;;;;;;0.20;0.20;;;;;;;;;;4857707;29;20053;-75
2023/03/18 02:19:49;;;;;;;;;;;;;;;;;;4857404;29;20460;-75
2023/03/18 02:22:30;;;;;;;0.10;0.10;;;;;;;;;;4856166;29;19924;-75
2023/03/18 02:25:04;;;;;;;0.10;0.10;;;;;;;;;;4857109;29;20049;-75
2023/03/18 02:27:34;;;;;;;0.10;0.10;;;;;;;;;;4831276;29;20348;-74
2023/03/18 02:30:05;;;;;;;0.13;0.13;;;;;;;;;;4859584;29;20053;-75
2023/03/18 02:32:32;;;;;;;0.20;0.20;;;;;;;;;;4840533;29;20081;-75
2023/03/18 02:35:00;;;;;;;0.20;0.20;;;;;;;;;;4857187;29;20109;-75
2023/03/18 02:37:26;;;;;;;0.10;0.10;;;;;;;;;;4856088;29;20090;-75
2023/03/18 02:39:52;;;;;;;0.20;0.20;;;;;;;;;;4841795;29;20084;-75
2023/03/18 02:42:31;;;;;;;0.10;0.10;;;;;;;;;;4840156;29;20066;-75
2023/03/18 02:44:57;;;;;;;0.20;0.20;;;;;;;;;;4856985;29;20066;-75
2023/03/18 02:47:24;;;;;;;0.20;0.20;;;;;;;;;;4851501;29;20045;-75
2023/03/18 02:49:51;;;;;;;0.10;0.10;;;;;;;;;;4849865;29;20458;-75
2023/03/18 02:52:20;;;;;;;0.10;0.10;;;;;;;;;;4833779;29;20068;-74
2023/03/18 02:54:46;;;;;;;0.10;0.10;;;;;;;;;;4829138;29;20056;-75
2023/03/18 02:57:15;;;;;;;0.10;0.10;;;;;;;;;;4835265;29;20056;-74
2023/03/18 02:59:41;;;;;;;0.10;0.10;;;;;;;;;;4859451;29;20106;-74
2023/03/18 03:02:07;;;;;;;0.10;0.10;;;;;;;;;;4840901;29;20049;-74
2023/03/18 03:04:33;;;;;;;0.10;0.10;;;;;;;;;;4859100;29;20064;-74
2023/03/18 03:07:00;;;;;;;0.20;0.20;;;;;;;;;;4868841;29;20045;-75
2023/03/18 03:09:27;;;;;;;0.20;0.20;;;;;;;;;;4859324;29;20101;-74
2023/03/18 03:11:53;;;;;;;0.20;0.20;;;;;;;;;;4839293;29;20459;-75
2023/03/18 03:14:20;;;;;;;0.10;0.10;;;;;;;;;;4855465;29;20566;-74
2023/03/18 03:16:47;;;;;;;0.28;0.28;;;;;;;;;;4840173;29;20061;-74
2023/03/18 03:19:13;;;;;;;0.10;0.10;;;;;;;;;;4839733;29;20049;-74
2023/03/18 03:21:39;;;;;;;0.13;0.13;;;;;;;;;;4839952;29;20046;-74
2023/03/18 03:24:06;;;;;;;0.10;0.10;;;;;;;;;;4841403;29;20090;-74
2023/03/18 03:26:33;;;;;;;0.10;0.10;;;;;;;;;;4836382;29;20049;-74
2023/03/18 03:28:59;;;;;;;0.10;0.10;;;;;;;;;;4855008;29;20055;-74
2023/03/18 03:31:26;;;;;;;0.15;0.15;;;;;;;;;;4838946;29;20045;-74
2023/03/18 03:33:52;;;;;;;0.13;0.13;;;;;;;;;;4857357;29;20413;-74
2023/03/18 03:36:18;;;;;;;0.10;0.10;;;;;;;;;;4850596;29;20042;-75
2023/03/18 03:38:44;;;;;;;0.10;0.10;;;;;;;;;;4836523;29;20455;-74
2023/03/18 03:41:11;;;;;;;0.10;0.10;;;;;;;;;;4857130;29;20045;-74
2023/03/18 03:43:39;;;;;;;0.20;0.20;;;;;;;;;;4839332;29;20510;-74
2023/03/18 03:46:05;;;;;;;0.15;0.15;;;;;;;;;;4836228;29;20105;-74
2023/03/18 03:48:32;;;;;;;0.10;0.10;;;;;;;;;;4839953;29;20041;-74
2023/03/18 03:50:58;;;;;;;0.20;0.20;;;;;;;;;;4841679;29;20561;-74
2023/03/18 03:53:24;;;;;;;0.10;0.10;;;;;;;;;;4855967;29;20054;-74
2023/03/18 03:55:50;;;;;;;0.20;0.20;;;;;;;;;;4839776;29;20502;-74
2023/03/18 03:58:19;;;;;;;0.20;0.20;;;;;;;;;;4855707;29;20586;-74
2023/03/18 04:00:45;;;;;;;0.13;0.13;;;;;;;;;;4833665;29;20097;-74
2023/03/18 04:03:12;;;;;;;0.15;0.15;;;;;;;;;;4857426;29;20399;-74
2023/03/18 04:05:38;;;;;;;0.17;0.17;;;;;;;;;;4834736;29;20046;-74
2023/03/18 04:08:05;;;;;;;0.10;0.10;;;;;;;;;;4855841;29;20041;-74
2023/03/18 04:10:33;;;;;;;0.10;0.10;;;;;;;;;;4852076;29;20050;-74
2023/03/18 04:13:02;;;;;;;0.13;0.13;;;;;;;;;;4826061;29;20312;-74
2023/03/18 04:15:28;;;;;;;0.10;0.10;;;;;;;;;;4851370;29;20068;-74
2023/03/18 04:17:54;;;;;;;0.20;0.20;;;;;;;;;;4837777;29;20046;-74
2023/03/18 04:20:21;;;;;;;0.17;0.17;;;;;;;;;;4856305;29;20072;-74
2023/03/18 04:22:48;;;;;;;0.10;0.10;;;;;;;;;;4838647;29;20064;-74
2023/03/18 04:25:14;;;;;;;0.10;0.10;;;;;;;;;;4840859;29;20113;-74
2023/03/18 04:27:40;;;;;;;0.20;0.20;;;;;;;;;;4833413;29;20049;-74
2023/03/18 04:30:08;;;;;;;0.10;0.10;;;;;;;;;;4845720;29;20175;-74
2023/03/18 04:32:35;;;;;;;0.20;0.20;;;;;;;;;;4839761;29;20049;-74
2023/03/18 04:35:01;;;;;;;0.10;0.10;;;;;;;;;;4837635;29;20063;-74
2023/03/18 04:37:28;;;;;;;0.10;0.10;;;;;;;;;;4856294;29;20045;-74
2023/03/18 04:39:54;;;;;;;0.10;0.10;;;;;;;;;;4856603;29;20045;-74
2023/03/18 04:42:20;;;;;;;0.20;0.20;;;;;;;;;;4854547;29;20050;-74
2023/03/18 04:44:46;;;;;;;0.20;0.20;;;;;;;;;;4849218;29;20147;-74
2023/03/18 04:47:12;;;;;;;0.10;0.10;;;;;;;;;;4843368;29;20051;-74
2023/03/18 04:49:38;;;;;;;0.10;0.10;;;;;;;;;;4860992;29;20037;-74
2023/03/18 04:52:06;;;;;;;0.10;0.10;;;;;;;;;;4854186;29;20057;-75
2023/03/18 04:54:32;;;;;;;0.10;0.10;;;;;;;;;;4853646;29;20045;-74
2023/03/18 04:56:58;;;;;;;0.10;0.10;;;;;;;;;;4853466;29;20045;-74
2023/03/18 04:59:25;;;;;;;0.20;0.20;;;;;;;;;;4834154;29;20521;-75
2023/03/18 05:01:51;;;;;;;0.10;0.10;;;;;;;;;;4843613;29;20080;-74
2023/03/18 05:04:17;;;;;;;0.10;0.10;;;;;;;;;;4853850;29;20569;-74
2023/03/18 05:06:43;;;;;;;0.10;0.10;;;;;;;;;;4855269;29;20065;-74
2023/03/18 05:09:09;;;;;;;0.10;0.10;;;;;;;;;;4857079;29;20124;-74
2023/03/18 05:11:35;;;;;;;0.15;0.15;;;;;;;;;;4842592;29;20173;-75
2023/03/18 05:14:01;;;;;;;0.13;0.13;;;;;;;;;;4855352;29;20045;-74
2023/03/18 05:16:28;;;;;;;0.20;0.20;;;;;;;;;;4841824;29;20616;-74
2023/03/18 05:18:55;;;;;;;0.20;0.20;;;;;;;;;;4855042;29;20109;-74
2023/03/18 05:21:21;;;;;;;0.17;0.17;;;;;;;;;;4842846;29;20058;-74
2023/03/18 05:23:47;;;;;;;0.10;0.10;;;;;;;;;;4857037;29;20082;-74
2023/03/18 05:26:13;;;;;;;0.10;0.10;;;;;;;;;;4836526;29;20052;-74
2023/03/18 05:28:39;;;;;;;0.20;0.20;;;;;;;;;;4837261;29;20061;-74
2023/03/18 05:31:06;;;;;;;0.10;0.10;;;;;;;;;;4858044;29;20092;-74
2023/03/18 05:33:37;;;;;;;0.10;0.10;;;;;;;;;;4839819;29;20053;-74
2023/03/18 05:36:03;;;;;;;0.20;0.20;;;;;;;;;;4858048;29;20088;-75
2023/03/18 05:38:29;;;;;;;0.20;0.20;;;;;;;;;;4858141;29;20058;-75
2023/03/18 05:40:55;;;;;;;0.10;0.10;;;;;;;;;;4858366;29;20425;-75
2023/03/18 05:43:22;;;;;;;0.10;0.10;;;;;;;;;;4838407;29;20076;-75
2023/03/18 05:45:49;;;;;;;0.20;0.20;;;;;;;;;;4859020;29;20129;-75
2023/03/18 05:48:15;;;;;;;0.20;0.20;;;;;;;;;;4840259;29;20549;-75
2023/03/18 05:50:41;;;;;;;0.10;0.10;;;;;;;;;;4850201;29;20084;-75
2023/03/18 05:53:08;;;;;;;0.10;0.10;;;;;;;;;;4839124;29;20042;-75
2023/03/18 05:55:38;;;;;;;0.17;0.17;;;;;;;;;;4839809;29;20054;-75
2023/03/18 05:58:04;;;;;;;0.10;0.10;;;;;;;;;;4855077;29;20089;-75
2023/03/18 06:00:30;;;;;;;0.10;0.10;;;;;;;;;;4841801;29;20062;-75
2023/03/18 06:02:58;;;;;;;0.10;0.10;;;;;;;;;;4856402;29;20434;-75
2023/03/18 06:05:24;;;;;;;0.10;0.10;;;;;;;;;;4840787;29;20529;-75
2023/03/18 06:07:51;;;;;;;0.20;0.20;;;;;;;;;;4857681;29;20447;-75
2023/03/18 06:10:21;;;;;;;0.17;0.17;;;;;;;;;;4840659;29;20053;-75
2023/03/18 06:12:48;;;;;;;0.10;0.10;;;;;;;;;;4855341;29;20060;-75
2023/03/18 06:15:14;;;;;;;0.10;0.10;;;;;;;;;;4857944;29;20049;-74
2023/03/18 06:17:40;;;;;;;0.10;0.10;;;;;;;;;;4857964;29;20053;-75
2023/03/18 06:20:13;;;;;;;0.10;0.10;;;;;;;;;;4840187;29;20084;-75
2023/03/18 06:22:39;;;;;;;0.13;0.13;;;;;;;;;;4858239;29;20045;-75
2023/03/18 06:25:07;;;;;;;0.20;0.20;;;;;;;;;;4842199;29;20061;-75
2023/03/18 06:27:33;;;;;;;0.10;0.10;;;;;;;;;;4850668;29;20045;-75
2023/03/18 06:30:03;;;;;;;0.13;0.13;;;;;;;;;;4856354;29;20089;-76
2023/03/18 06:32:30;;;;;;;0.20;0.20;;;;;;;;;;4852946;29;20503;-74
2023/03/18 06:34:56;;;;;;;0.10;0.10;;;;;;;;;;4859298;29;20506;-74
2023/03/18 06:37:22;;;;;;;0.20;0.20;;;;;;;;;;4867688;29;20368;-74
2023/03/18 06:39:48;;;;;;;0.10;0.10;;;;;;;;;;4855405;29;20125;-73
2023/03/18 06:42:14;;;;;;;0.10;0.10;;;;;;;;;;4839644;29;20045;-74
2023/03/18 06:44:43;;;;;;;0.10;0.10;;;;;;;;;;4826193;29;20469;-74
2023/03/18 06:47:09;;;;;;;0.20;0.20;;;;;;;;;;4841103;29;20064;-74
2023/03/18 06:49:35;;;;;;;0.10;0.10;;;;;;;;;;4836285;29;20052;-74
2023/03/18 06:52:02;;;;;;;0.20;0.20;;;;;;;;;;4840041;29;20057;-74
2023/03/18 06:54:28;;;;;;;0.10;0.10;;;;;;;;;;4830310;29;20066;-74
2023/03/18 06:56:54;;;;;;;0.20;0.20;;;;;;;;;;4839336;29;20144;-74
2023/03/18 06:59:22;;;;;;;0.10;0.10;;;;;;;;;;4856513;29;20054;-75
2023/03/18 07:01:48;;;;;;;0.10;0.10;;;;;;;;;;4855227;29;20057;-75
2023/03/18 07:04:14;;;;;;;0.20;0.20;;;;;;;;;;4833051;29;20046;-75
2023/03/18 07:06:40;;;;;;;0.10;0.10;;;;;;;;;;4836801;29;20054;-75
2023/03/18 07:09:09;;;;;;;0.10;0.10;;;;;;;;;;4840915;29;20060;-75
2023/03/18 07:11:35;;;;;;;0.17;0.17;;;;;;;;;;4838254;29;20046;-75
2023/03/18 07:14:01;;;;;;;0.10;0.10;;;;;;;;;;4836701;29;20053;-75
2023/03/18 07:16:30;;;;;;;0.10;0.10;;;;;;;;;;4846965;29;20260;-75
2023/03/18 07:19:00;;;;;;;0.13;0.13;;;;;;;;;;4837203;29;20132;-75
2023/03/18 07:21:26;;;;;;;0.10;0.10;;;;;;;;;;4838406;29;20058;-74
2023/03/18 07:23:54;;;;;;;0.10;0.10;;;;;;;;;;4838323;29;20045;-74
2023/03/18 07:26:20;;;;;;;0.20;0.20;;;;;;;;;;4831592;29;20060;-74
2023/03/18 07:28:46;;;;;;;0.15;0.15;;;;;;;;;;4855388;29;20095;-74
2023/03/18 07:31:12;;;;;;;0.20;0.20;;;;;;;;;;4833381;29;20042;-74
2023/03/18 07:33:39;;;;;;;0.25;0.25;;;;;;;;;;4857742;29;20050;-74
2023/03/18 07:36:06;;;;;;;0.15;0.15;;;;;;;;;;4856366;29;20096;-74
2023/03/18 07:38:32;;;;;;;0.10;0.10;;;;;;;;;;4853199;29;20085;-74
2023/03/18 07:40:59;;;;;;;0.10;0.10;;;;;;;;;;4839016;29;20085;-74
2023/03/18 07:43:25;;;;;;;0.10;0.10;;;;;;;;;;4831252;29;20049;-74
2023/03/18 07:45:52;;;;;;;0.20;0.20;;;;;;;;;;4833172;29;20049;-74
2023/03/18 07:48:18;;;;;;;0.10;0.10;;;;;;;;;;4825134;29;20109;-74
2023/03/18 07:50:44;;;;;;;0.20;0.20;;;;;;;;;;4840383;29;20475;-74
2023/03/18 07:53:11;;;;;;;0.20;0.20;;;;;;;;;;4850184;29;20076;-74
2023/03/18 07:55:37;;;;;;;0.10;0.10;;;;;;;;;;4855121;29;20045;-76
2023/03/18 07:58:04;;;;;;;0.20;0.20;;;;;;;;;;4836934;29;20049;-74
2023/03/18 08:00:31;;;;;;;0.20;0.20;;;;;;;;;;4853669;29;20053;-74
2023/03/18 08:02:57;;;;;;;0.20;0.20;;;;;;;;;;4837315;29;20060;-75
2023/03/18 08:05:23;;;;;;;0.20;0.20;;;;;;;;;;4838124;29;20050;-75
2023/03/18 08:07:49;;;;;;;0.10;0.10;;;;;;;;;;4856245;29;20050;-75
2023/03/18 08:10:15;;;;;;;0.10;0.10;;;;;;;;;;4855676;29;20491;-75
2023/03/18 08:12:45;;;;;;;0.10;0.10;;;;;;;;;;4851929;29;20061;-75
2023/03/18 08:15:11;;;;;;;0.20;0.20;;;;;;;;;;4823853;29;20061;-75
2023/03/18 08:17:37;;;;;;;0.20;0.20;;;;;;;;;;4850176;29;20514;-75
2023/03/18 08:20:04;;;;;;;0.20;0.20;;;;;;;;;;4846682;29;20046;-75
2023/03/18 08:22:36;;;;;;;0.10;0.10;;;;;;;;;;4851967;29;20054;-75
2023/03/18 08:25:05;;;;;;;0.20;0.20;;;;;;;;;;4852435;29;20129;-76
2023/03/18 08:27:31;;;;;;;0.10;0.10;;;;;;;;;;4832832;29;20058;-75
2023/03/18 08:30:00;;;;;;;0.10;0.10;;;;;;;;;;4859140;29;20410;-75
2023/03/18 08:32:26;;;;;;;0.10;0.10;;;;;;;;;;4843186;29;20062;-75
2023/03/18 08:34:52;;;;;;;0.20;0.20;;;;;;;;;;4857848;29;20482;-75
2023/03/18 08:37:19;;;;;;;0.13;0.13;;;;;;;;;;4843491;29;20129;-75
2023/03/18 08:39:45;;;;;;;0.13;0.13;;;;;;;;;;4842475;29;20049;-75
2023/03/18 08:42:13;;;;;;;0.10;0.10;;;;;;;;;;4842657;29;20045;-75
2023/03/18 08:44:42;;;;;;;0.10;0.10;;;;;;;;;;4861239;29;20061;-75
2023/03/18 08:47:08;;;;;;;0.20;0.20;;;;;;;;;;4843603;29;20169;-76
2023/03/18 08:49:34;;;;;;;0.15;0.15;;;;;;;;;;4829113;29;20041;-75
2023/03/18 08:52:03;;;;;;;0.20;0.20;;;;;;;;;;4848368;29;20064;-75
2023/03/18 08:54:29;;;;;;;0.20;0.20;;;;;;;;;;4843583;29;20478;-75
2023/03/18 08:56:56;;;;;;;0.20;0.20;;;;;;;;;;4830579;29;20080;-75
2023/03/18 08:59:22;;;;;;;0.15;0.15;;;;;;;;;;4842585;29;20050;-75
2023/03/18 09:01:52;;;;;;;0.20;0.20;;;;;;;;;;4825021;29;20137;-75
2023/03/18 09:04:19;;;;;;;0.20;0.20;;;;;;;;;;4825764;29;20054;-75
2023/03/18 09:06:45;;;;;;;0.10;0.10;;;;;;;;;;4841429;29;20073;-75
2023/03/18 09:09:11;;;;;;;0.10;0.10;;;;;;;;;;4843041;29;20518;-75
2023/03/18 09:11:38;;;;;;;0.10;0.10;;;;;;;;;;4846672;29;20048;-75
2023/03/18 09:14:04;;;;;;;0.10;0.10;;;;;;;;;;4853553;29;20128;-75
2023/03/18 09:16:30;;;;;;;0.20;0.20;;;;;;;;;;4841789;29;20574;-75
2023/03/18 09:18:56;;;;;;;0.10;0.10;;;;;;;;;;4850350;29;20633;-75
2023/03/18 09:21:22;;;;;;;0.10;0.10;;;;;;;;;;4842452;29;20554;-75
2023/03/18 09:23:49;;;;;;;0.20;0.20;;;;;;;;;;4830805;29;20082;-75
2023/03/18 09:26:18;;;;;;;0.10;0.10;;;;;;;;;;4839870;29;20089;-74
2023/03/18 09:28:45;;;;;;;0.20;0.20;;;;;;;;;;4848463;29;20053;-74
2023/03/18 09:31:12;;;;;;;0.10;0.10;;;;;;;;;;4847788;29;20235;-74
2023/03/18 09:33:40;;;;;;;0.20;0.20;;;;;;;;;;4847999;29;20060;-75
2023/03/18 09:36:08;;;;;;;0.10;0.10;;;;;;;;;;4840019;29;20061;-75
2023/03/18 09:38:34;;;;;;;0.10;0.10;;;;;;;;;;4858112;29;20967;-75
2023/03/18 09:41:09;;;;;;;0.17;0.17;;;;;;;;;;4838548;29;20064;-74
2023/03/18 09:43:38;;;;;;;0.20;0.20;;;;;;;;;;4857938;29;20202;-74
2023/03/18 09:46:23;;;;;;;0.20;0.20;;;;;;;;;;4842479;29;20078;-74
2023/03/18 09:49:00;;;;;;;0.20;0.20;;;;;;;;;;4846524;29;20042;-75
2023/03/18 09:51:33;;;;;;;0.20;0.20;;;;;;;;;;4842234;29;20042;-75
2023/03/18 09:54:05;;;;;;;0.20;0.20;;;;;;;;;;4858255;29;20124;-75
2023/03/18 09:56:34;;;;;;;0.20;0.20;;;;;;;;;;4858889;29;20073;-74
2023/03/18 09:59:02;;;;;;;0.10;0.10;;;;;;;;;;4859529;29;20095;-74
2023/03/18 10:01:29;;;;;;;0.15;0.15;;;;;;;;;;4843681;29;20085;-77
2023/03/18 10:04:01;;;;;;;0.20;0.20;;;;;;;;;;4856004;29;20083;-75
2023/03/18 10:06:27;;;;;;;0.10;0.10;;;;;;;;;;4862399;29;20049;-78
2023/03/18 10:08:56;;;;;;;0.20;0.20;;;;;;;;;;4829355;29;20407;-77
2023/03/18 10:11:33;;;;;;;0.20;0.20;;;;;;;;;;4828273;29;20045;-78
2023/03/18 10:14:10;;;;;;;0.10;0.10;;;;;;;;;;4826254;29;20045;-79
2023/03/18 10:17:01;;;;;;;0.20;0.20;;;;;;;;;;4847259;29;20092;-79
2023/03/18 10:19:28;;;;;;;0.17;0.17;;;;;;;;;;4854095;29;20049;-74
2023/03/18 10:21:57;;;;;;;0.10;0.10;;;;;;;;;;4840197;29;20053;-74
2023/03/18 10:24:36;;;;;;;0.17;0.17;;;;;;;;;;4859643;29;20109;-73
2023/03/18 10:27:07;;;;;;;0.10;0.10;;;;;;;;;;4835557;29;20049;-74
2023/03/18 10:29:39;;;;;;;0.10;0.10;;;;;;;;;;4837494;29;20132;-73
2023/03/18 10:32:09;;;;;;;0.10;0.10;;;;;;;;;;4856410;29;20041;-74
2023/03/18 10:34:40;;;;;;;0.10;0.10;;;;;;;;;;4840093;29;20058;-74
2023/03/18 10:37:21;;;;;;;0.20;0.20;;;;;;;;;;4835461;29;20462;-74
2023/03/18 10:39:48;;;;;;;0.25;0.25;;;;;;;;;;4843705;29;20060;-74
2023/03/18 10:42:22;;;;;;;0.10;0.10;;;;;;;;;;4833702;29;20049;-75
2023/03/18 10:44:49;;;;;;;0.10;0.10;;;;;;;;;;4835047;29;20066;-74
2023/03/18 10:47:27;;;;;;;0.10;0.10;;;;;;;;;;4836698;29;20071;-75
2023/03/18 10:50:05;;;;;;;0.17;0.17;;;;;;;;;;4841074;29;20037;-74
2023/03/18 10:52:45;;;;;;;0.20;0.20;;;;;;;;;;4854121;29;20053;-76
2023/03/18 10:55:13;;;;;;;0.20;0.20;;;;;;;;;;4849552;29;20561;-76
2023/03/18 10:57:39;;;;;;;0.10;0.10;;;;;;;;;;4855424;29;20282;-76
2023/03/18 11:00:06;;;;;;;1.25;0.45;;;;;;;;;;4841956;29;20054;-76
2023/03/18 11:02:37;;;;;;;0.17;0.17;;;;;;;;;;4857088;29;20379;-77
2023/03/18 11:05:22;;;;;;;0.10;0.10;;;;;;;;;;4831360;29;20062;-77
2023/03/18 11:07:48;;;;;;;;;;;;;;;;;;4833391;29;20128;-77
2023/03/18 11:10:17;;;;;;;0.10;0.10;;;;;;;;;;4856229;29;19924;-77
2023/03/18 11:12:43;;;;;;;0.10;0.10;;;;;;;;;;4841017;29;20061;-76
2023/03/18 11:15:13;;;;;;;0.10;0.10;;;;;;;;;;4841168;29;20057;-76
2023/03/18 11:17:39;;;;;;;0.10;0.10;;;;;;;;;;4855873;29;20143;-76
2023/03/18 11:20:19;;;;;;;0.20;0.20;;;;;;;;;;4859089;29;20057;-76
2023/03/18 11:22:47;;;;;;;0.10;0.10;;;;;;;;;;4855987;29;20049;-75
2023/03/18 11:25:16;;;;;;;0.20;0.20;;;;;;;;;;4858150;29;20093;-76
2023/03/18 11:27:47;;;;;;;0.10;0.10;;;;;;;;;;4855615;29;20053;-77
2023/03/18 11:30:20;;;;;;;0.20;0.20;;;;;;;;;;4837755;29;20042;-76
2023/03/18 11:32:57;;;;;;;0.13;0.13;;;;;;;;;;4840620;29;20049;-76
2023/03/18 11:35:25;;;;;;;0.10;0.10;;;;;;;;;;4837774;29;20048;-76
2023/03/18 11:38:01;;;;;;;0.20;0.20;;;;;;;;;;4840670;29;20081;-76
2023/03/18 11:40:28;;;;;;;0.10;0.10;;;;;;;;;;4858425;29;20048;-76
2023/03/18 11:42:58;;;;;;;0.20;0.20;;;;;;;;;;4856979;29;20131;-76
2023/03/18 11:45:30;;;;;;;0.10;0.10;;;;;;;;;;4826595;29;20073;-76
2023/03/18 11:48:00;;;;;;;0.20;0.20;;;;;;;;;;4849329;29;20095;-76
2023/03/18 11:50:31;;;;;;;0.10;0.10;;;;;;;;;;4871057;29;20045;-75
2023/03/18 11:53:04;;;;;;;0.20;0.20;;;;;;;;;;4840919;29;20611;-75
2023/03/18 11:55:53;;;;;;;0.10;0.10;;;;;;;;;;4858457;29;20503;-76
2023/03/18 11:58:38;;;;;;;0.20;0.20;;;;;;;;;;4846120;29;20093;-76
2023/03/18 12:01:16;;;;;;;0.13;0.13;;;;;;;;;;4840063;29;20053;-76
2023/03/18 12:04:03;;;;;;;0.10;0.10;;;;;;;;;;4841060;29;20045;-76
2023/03/18 12:06:30;;;;;;;0.10;0.10;;;;;;;;;;4839189;29;20054;-75
2023/03/18 12:09:10;;;;;;;0.20;0.20;;;;;;;;;;4854637;29;20198;-76
2023/03/18 12:11:37;;;;;;;0.13;0.13;;;;;;;;;;4837044;29;20604;-76
2023/03/18 12:14:24;;;;;;;0.10;0.10;;;;;;;;;;4857467;29;20077;-76
2023/03/18 12:16:57;;;;;;;0.10;0.10;;;;;;;;;;4839707;29;20397;-76
2023/03/18 12:19:27;;;;;;;0.10;0.10;;;;;;;;;;4840263;29;20069;-77
2023/03/18 12:22:03;;;;;;;0.10;0.10;;;;;;;;;;4844249;29;20105;-76
2023/03/18 12:24:53;;;;;;;0.20;0.20;;;;;;;;;;4838813;29;20081;-76
2023/03/18 12:27:22;;;;;;;0.13;0.13;;;;;;;;;;4856272;29;20049;-75
2023/03/18 12:30:08;;;;;;;0.10;0.10;;;;;;;;;;4852786;29;20070;-76
2023/03/18 12:32:40;;;;;;;0.20;0.20;;;;;;;;;;4838090;29;20526;-76
2023/03/18 12:35:25;;;;;;;0.20;0.20;;;;;;;;;;4857917;29;20573;-76
2023/03/18 12:38:17;;;;;;;0.13;0.13;;;;;;;;;;4854915;29;20041;-77
2023/03/18 12:40:49;;;;;;;0.10;0.10;;;;;;;;;;4834246;29;20144;-76
2023/03/18 12:43:36;;;;;;;0.20;0.20;;;18.60;99.90;;;;;;4839981;29;20087;-77
2023/03/18 12:46:20;;;;;;;0.20;0.20;;;18.40;99.90;;;;;;4840881;29;20118;-75
2023/03/18 12:49:07;;;;;;;0.20;0.20;;;18.40;99.90;;;;;;4857890;29;20088;-75
2023/03/18 12:51:58;;;;;;;0.10;0.10;;;18.60;99.90;;;;;;4841146;29;20049;-75
2023/03/18 12:54:48;;;;;;;0.20;0.20;;;18.70;99.90;;;;;;4844945;29;20061;-76
2023/03/18 12:57:25;;;;;;;0.20;0.20;;;18.60;99.90;;;;;;4800945;29;20061;-75
2023/03/18 13:00:00;;;;;;;0.20;0.20;;;18.50;99.90;;;;;;4840943;29;20387;-75
2023/03/18 13:02:48;;;;;;;0.20;0.20;;;18.60;99.90;;;;;;4840397;29;20049;-75
2023/03/18 13:05:46;;;;;;;0.20;0.20;;;18.90;99.90;;;;;;4839855;29;20506;-75
2023/03/18 13:08:43;;;;;;;0.20;0.20;;;19.30;99.90;;;;;;4839029;29;20062;-75
2023/03/18 13:11:28;;;;;;;0.20;0.20;;;19.60;99.90;;;;;;4842658;29;20072;-75
2023/03/18 13:14:02;;;;;;;0.20;0.20;;;20.00;99.90;;;;;;4838822;29;20371;-75
2023/03/18 13:16:34;;;;;;;0.20;0.20;;;20.20;99.90;;;;;;4859092;29;20451;-75
2023/03/18 13:19:01;;;;;;;0.10;0.10;;;20.50;99.90;;;;;;4860127;29;20058;-75
2023/03/18 13:21:29;;;;;;;0.20;0.20;;;20.90;99.90;;;;;;4860632;29;20048;-75
2023/03/18 13:23:58;;;;;;;0.20;0.20;;;21.10;99.90;;;;;;4860858;29;20049;-76
2023/03/18 13:26:55;;;;;;;0.20;0.20;;;21.20;99.90;;;;;;4857790;29;20407;-75
2023/03/18 13:29:49;;;;;;;0.20;0.20;;;21.10;99.90;;;;;;4827658;29;20158;-76
2023/03/18 13:32:35;;;;;;;0.20;0.20;;;21.20;99.90;;;;;;4849084;29;20056;-75
2023/03/18 13:35:13;;;;;;;0.20;0.20;;;21.30;99.90;;;;;;4867598;29;20045;-76
2023/03/18 13:37:43;;;;;;;0.20;0.20;;;21.50;99.90;;;;;;4841591;29;20077;-75
2023/03/18 13:40:18;;;;;;;0.10;0.10;;;21.80;99.90;;;;;;4860156;29;20053;-76
2023/03/18 13:42:47;;;;;;;0.20;0.20;;;21.90;99.90;;;;;;4851261;29;20679;-75
2023/03/18 13:45:32;;;;;;;0.20;0.20;;;21.80;99.90;;;;;;4841793;29;20054;-76
2023/03/18 13:48:37;;;;;;;0.15;0.15;;;21.50;99.90;;;;;;4839548;29;20053;-75
2023/03/18 13:51:23;;;;;;;0.20;0.20;;;20.80;99.90;;;;;;4837848;29;20053;-76
2023/03/18 13:53:51;;;;;;;0.20;0.20;;;;;;;;;;4841251;29;20062;-77
2023/03/18 13:56:41;;;;;;;0.20;0.20;;;20.50;99.90;;;;;;4825042;29;20693;-76
2023/03/18 13:59:32;;;;;;;0.20;0.20;;;20.50;99.90;;;;;;4841657;29;20592;-76
2023/03/18 14:02:29;;;;;;;0.20;0.20;;;20.40;99.90;;;;;;4856143;29;20141;-76
2023/03/18 14:04:58;;;;;;;0.20;0.20;;;20.40;99.90;;;;;;4859222;29;20048;-76
2023/03/18 14:07:28;;;;;;;0.20;0.20;;;20.40;99.90;;;;;;4840766;29;20494;-76
2023/03/18 14:10:00;;;;;;;0.20;0.20;;;;;;;;;;4858420;29;20045;-77
2023/03/18 14:12:29;;;;;;;0.20;0.20;;;;;;;;;;4857897;29;20133;-77
2023/03/18 14:15:25;;;;;;;0.20;0.20;;;;;;;;;;4859805;29;20049;-80
2023/03/18 14:17:57;;;;;;;0.10;0.10;;;;;;;;;;4841511;29;20562;-76
2023/03/18 14:20:26;;;;;;;0.20;0.20;;;;;;;;;;4842738;29;20072;-77
2023/03/18 14:22:55;;;;;;;0.20;0.20;;;;;;;;;;4842026;29;20080;-76
2023/03/18 14:25:26;;;;;;;0.10;0.10;;;;;;;;;;4841597;29;20052;-76
2023/03/18 14:28:02;;;;;;;0.20;0.20;;;;;;;;;;4841542;29;20120;-76
2023/03/18 14:30:31;;;;;;;0.10;0.10;;;;;;;;;;4851801;29;20050;-75
2023/03/18 14:33:20;;;;;;;0.20;0.20;;;;;;;;;;4833102;29;20505;-76
2023/03/18 14:35:56;;;;;;;0.10;0.10;;;;;;;;;;4852313;29;20106;-75
2023/03/18 14:38:24;;;;;;;0.20;0.20;;;;;;;;;;4842887;29;20045;-76
2023/03/18 14:40:53;;;;;;;0.20;0.20;;;;;;;;;;4841828;29;20049;-76
2023/03/18 14:43:23;;;;;;;0.10;0.10;;;;;;;;;;4850519;29;20117;-76
2023/03/18 14:45:58;;;;;;;0.20;0.20;;;;;;;;;;4858130;29;20422;-76
2023/03/18 14:48:34;;;;;;;0.10;0.10;;;;;;;;;;4857060;29;20501;-76
2023/03/18 14:51:07;;;;;;;0.17;0.17;;;;;;;;;;4842911;29;20057;-76